• Join FlightAware (Why Join?)
  • Login
  • US Flag 
10:56PM EDT


 

Airport Tracker/Info


-or-


 

Live Flight TrackerFlight Track Log ✈ RPA3392 ✈ 21-Aug-2013 ✈ KDCA - KALB

Flight Track Log - Related Links

Times and Time Zones

All times are in EDT time to prevent confusion due to time zone crossing. See the RPA3392 flight status page for this flight to view local times or setup timezone preferences in your user account.

Time Position Orientation Groundspeed Altitude Reporting Facility
EDT Latitude Longitude Course Direction KTS MPH feet Rate Location/Type
10:32PM 38.8167 -77.0333 90° East 156 180 1,600  Level Potomac TRACON
10:33PM 38.7667 -77.0167 165° South 222 255 3,200 1,920 Climbing Potomac TRACON
10:34PM 38.7667 -76.9333 90° East 285 328 5,700 2,280 Climbing Potomac TRACON
10:36PM 39.0764 -76.4106 61° Northeast  Level FlightAware Approximate
10:36PM 38.8833 -76.8931 15° North 252 290 9,900  Level Washington Center
10:37PM 39.1167 -76.2837 90° East  Level FlightAware Approximate
10:37PM 38.9322 -76.8031 55° Northeast 272 313 11,700  Level Washington Center
10:38PM 38.9731 -76.6944 64° Northeast 301 346 13,900 1,740 Climbing Washington Center
10:39PM 39.0178 -76.5775 64° Northeast 328 377 15,200 1,680 Climbing Washington Center
10:40PM 39.0625 -76.4578 64° Northeast 353 406 17,300 1,740 Climbing Washington Center
10:41PM 39.1069 -76.3378 64° Northeast 364 419 18,800 1,320 Climbing Washington Center
10:42PM 39.1514 -76.2181 64° Northeast 369 425 20,100 1,380 Climbing Washington Center
10:43PM 39.1689 -76.0656 82° East 375 432 21,600 1,260 Climbing Washington Center
10:44PM 39.1881 -75.9264 80° East 382 440 22,600 1,080 Climbing Washington Center
10:45PM 39.2508 -75.8086 55° Northeast 382 440 23,800 1,080 Climbing Washington Center
10:46PM 39.3322 -75.7017 45° Northeast 393 452 24,800 600 Climbing Washington Center
10:47PM 39.4136 -75.5942 46° Northeast 400 460 25,000 60 Climbing Washington Center
10:48PM 39.4989 -75.4867 44° Northeast 412 474 25,000  Level Washington Center
10:49PM 39.5800 -75.3789 46° Northeast 417 480 25,000  Level Washington Center
10:51PM 39.7667 -75.1136 47° Northeast 418 481 25,000  Level New York Center
10:52PM 39.8478 -75.0050 46° Northeast 423 487 25,000  Level New York Center
10:53PM 39.9250 -74.8906 49° Northeast 423 487 25,000  Level New York Center
10:54PM 40.0036 -74.7842 46° Northeast 423 487 25,000  Level New York Center
10:55PM 40.0739 -74.6797 49° Northeast 423 487 25,000  Level New York Center
10:56PM 40.1592 -74.5569 48° Northeast 418 481 25,000  Level New York Center
10:57PM 40.2458 -74.4475 44° Northeast 418 481 25,000  Level New York Center
10:58PM 40.3364 -74.3517 39° Northeast 418 481 25,000  Level New York Center
10:59PM 40.4247 -74.2553 40° Northeast 413 475 25,000  Level New York Center
11:00PM 40.5150 -74.1589 39° Northeast 413 475 25,000 -360 Level New York Center
11:02PM 40.7019 -73.9622 39° Northeast 412 474 24,000 -360 Descending Boston Center
11:03PM 40.7886 -73.8683 39° Northeast 412 474 24,000  Level Boston Center
11:04PM 40.8733 -73.7658 42° Northeast 406 467 24,000 -180 Level Boston Center
11:05PM 40.9536 -73.6767 40° Northeast 406 467 23,700 -540 Descending Boston Center
11:06PM 41.0628 -73.6017 27° Northeast 406 467 23,000 -360 Descending Boston Center
11:07PM 41.1633 -73.5292 28° Northeast 406 467 23,000 -420 Level Boston Center
11:08PM 41.2681 -73.4839 18° North 392 451 22,200 -1,080 Descending Boston Center
11:09PM 41.3764 -73.5022 353° North 379 436 20,900 -1,320 Descending Boston Center
11:10PM 41.4822 -73.5264 350° North 379 436 19,700 -1,200 Descending Boston Center
11:11PM 41.5739 -73.5444 352° North 374 430 18,600 -1,140 Descending Boston Center
11:12PM 41.6819 -73.5825 345° North 369 425 17,500 -1,440 Descending Boston Center
11:13PM 41.7583 -73.6478 327° Northwest 359 413 15,800 -1,920 Descending Boston Center
11:14PM 41.8622 -73.6806 347° North 344 396 13,700 -1,980 Descending Boston Center
11:15PM 41.9433 -73.6906 355° North 334 384 12,000 -1,560 Descending Boston Center
11:16PM 42.0286 -73.7061 352° North 334 384 11,000 -600 Descending Boston Center
11:17PM 42.1222 -73.7164 355° North 331 381 11,000  Level Boston Center
11:18PM 42.2306 -73.7300 355° North 333 383 11,000 -300 Level Boston Center
11:19PM 42.3014 -73.7258 North 302 348 10,400 -1,320 Descending Boston Center
11:20PM 42.3808 -73.7189 North 285 328 8,700 -1,680 Descending Boston Center
11:21PM 42.4642 -73.7094 North 283 326 7,000 -1,740 Descending Boston Center
11:22PM 42.5456 -73.6997 North 271 312 5,000 -1,440 Descending Boston Center
11:23PM 42.6206 -73.6928 North 269 310 4,000 -540 Descending Boston Center
11:24PM 42.6894 -73.6858 North 243 280 4,000 -300 Level Boston Center
11:25PM 42.7606 -73.6758 North 237 273 3,400 -660 Descending Boston Center
11:26PM 42.8189 -73.6769 359° North 205 236 2,700 -540 Descending Boston Center
11:27PM 42.8475 -73.7231 310° West 171 197 2,400 -420 Descending Boston Center
11:28PM 42.8344 -73.7822 253° West 170 196 1,900 -660 Descending Boston Center
11:29PM 42.7986 -73.8097 209° Southwest 153 176 1,100 -840 Descending Boston Center
11:30PM 42.7589 -73.8058 176° South 129 148 300 -840 Descending Boston Center